createdAt,value
2022-09-20T00:02:05.275Z,100204.69
2022-09-20T00:04:34.671Z,100209.25
2022-09-20T00:07:02.614Z,100207.38
2022-09-20T00:09:30.692Z,100211.13
2022-09-20T00:11:58.665Z,100208.44
2022-09-20T00:14:26.844Z,100201.38
2022-09-20T00:16:54.792Z,100202.41
2022-09-20T00:19:22.891Z,100203.47
2022-09-20T00:21:52.188Z,100198.09
2022-09-20T00:24:20.287Z,100204.50
2022-09-20T00:26:48.211Z,100196.41
2022-09-20T00:29:16.893Z,100200.97
2022-09-20T00:31:44.884Z,100209.88
2022-09-20T00:34:30.129Z,100198.09
2022-09-20T00:36:59.488Z,100209.69
2022-09-20T00:39:27.551Z,100199.72
2022-09-20T00:41:55.471Z,100199.72
2022-09-20T00:44:46.129Z,100193.28
2022-09-20T00:47:25.240Z,100188.94
2022-09-20T00:49:55.551Z,100194.34
2022-09-20T00:52:24.954Z,100194.34
2022-09-20T00:54:52.842Z,100200.53
2022-09-20T00:57:20.801Z,100205.94
2022-09-20T00:59:48.861Z,100206.75
2022-09-20T01:02:17.855Z,100201.38
2022-09-20T01:04:45.895Z,100198.91
2022-09-20T01:07:15.422Z,100203.25
2022-09-20T01:09:44.681Z,100195.97
2022-09-20T01:12:15.042Z,100198.66
2022-09-20T01:14:43.092Z,100194.34
2022-09-20T01:17:11.043Z,100195.97
2022-09-20T01:19:41.319Z,100197.84
2022-09-20T01:22:12.395Z,100190.81
2022-09-20T01:24:42.559Z,100182.72
2022-09-20T01:27:15.772Z,100184.38
2022-09-20T01:29:59.026Z,100184.59
2022-09-20T01:32:29.151Z,100181.06
2022-09-20T01:34:59.088Z,100181.06
2022-09-20T01:37:27.935Z,100180.22
2022-09-20T01:40:02.928Z,100172.13
2022-09-20T01:42:33.645Z,100181.28
2022-09-20T01:45:05.013Z,100175.88
2022-09-20T01:47:34.640Z,100182.31
2022-09-20T01:50:08.719Z,100176.31
2022-09-20T01:53:05.775Z,100173.63
2022-09-20T01:56:02.228Z,100173.63
2022-09-20T01:59:22.450Z,100174.66
2022-09-20T02:02:09.250Z,100165.75
2022-09-20T02:04:59.321Z,100166.78
2022-09-20T02:07:43.250Z,100163.25
2022-09-20T02:10:23.566Z,100169.69
2022-09-20T02:12:55.211Z,100170.75
2022-09-20T02:21:58.982Z,100179.03
2022-09-20T02:24:30.343Z,100177.38
2022-09-20T02:29:50.120Z,100177.38
2022-09-20T02:32:28.656Z,100176.53
2022-09-20T02:35:20.638Z,100176.53
2022-09-20T02:38:15.744Z,100174.66
2022-09-20T02:40:52.718Z,100173.66
2022-09-20T02:43:26.353Z,100168.25
2022-09-20T02:45:58.275Z,100167.44
2022-09-20T02:48:31.050Z,100170.13
2022-09-20T02:51:05.544Z,100164.91
2022-09-20T02:53:38.262Z,100172.81
2022-09-20T02:56:09.983Z,100172.81
2022-09-20T02:58:43.882Z,100168.25
2022-09-20T03:01:18.318Z,100167.59
2022-09-20T03:03:48.370Z,100170.28
2022-09-20T03:06:22.320Z,100175.69
2022-09-20T03:08:53.688Z,100166.78
2022-09-20T03:11:27.896Z,100171.16
2022-09-20T03:14:04.260Z,100171.16
2022-09-20T03:16:35.809Z,100166.56
2022-09-20T03:19:09.576Z,100169.06
2022-09-20T03:21:43.807Z,100172.38
2022-09-20T03:24:17.541Z,100176.72
2022-09-20T03:26:52.541Z,100174.88
2022-09-20T03:29:27.055Z,100170.31
2022-09-20T03:32:02.746Z,100166.56
2022-09-20T03:34:39.018Z,100174.66
2022-09-20T03:37:34.866Z,100167.19
2022-09-20T03:40:19.214Z,100170.50
2022-09-20T03:42:48.575Z,100162.41
2022-09-20T03:45:27.711Z,100165.72
2022-09-20T03:48:17.776Z,100170.25
2022-09-20T03:50:48.568Z,100168.19
2022-09-20T03:53:55.839Z,100164.47
2022-09-20T03:56:42.461Z,100170.69
2022-09-20T03:59:20.303Z,100169.63
2022-09-20T04:02:09.913Z,100173.16
2022-09-20T04:04:41.938Z,100164.22
2022-09-20T04:07:19.189Z,100166.72
2022-09-20T04:10:14.839Z,100174.59
2022-09-20T04:12:48.294Z,100170.88
2022-09-20T04:15:23.547Z,100171.88
2022-09-20T04:17:55.756Z,100169.19
2022-09-20T04:20:27.568Z,100170.63
2022-09-20T04:22:58.707Z,100167.13
2022-09-20T04:25:39.703Z,100159.84
2022-09-20T04:28:12.667Z,100166.91
2022-09-20T04:30:44.125Z,100166.06
2022-09-20T04:33:16.498Z,100168.56
2022-09-20T04:36:07.247Z,100168.56
2022-09-20T04:38:37.578Z,100171.25
2022-09-20T04:41:18.430Z,100176.44
2022-09-20T04:44:02.638Z,100175.38
2022-09-20T04:47:09.143Z,100170.81
2022-09-20T04:50:07.809Z,100185.13
2022-09-20T04:52:48.473Z,100202.97
2022-09-20T04:55:50.057Z,100221.84
2022-09-20T04:58:56.742Z,100206.28
2022-09-20T05:01:56.649Z,100200.03
2022-09-20T05:05:11.776Z,100210.63
2022-09-20T05:08:16.667Z,100214.97
2022-09-20T05:11:19.012Z,100214.97
2022-09-20T05:14:12.953Z,100222.03
2022-09-20T05:16:48.513Z,100226.38
2022-09-20T05:19:25.111Z,100226.38
2022-09-20T05:22:19.143Z,100217.47
2022-09-20T05:25:02.884Z,100221.19
2022-09-20T05:27:37.175Z,100221.19
2022-09-20T05:30:08.861Z,100224.75
2022-09-20T05:32:41.068Z,100219.94
2022-09-20T05:35:15.511Z,100217.22
2022-09-20T05:37:47.719Z,100219.94
2022-09-20T05:40:20.180Z,100209.13
2022-09-20T05:42:51.273Z,100223.69
2022-09-20T05:45:28.151Z,100218.28
2022-09-20T05:47:57.984Z,100219.94
2022-09-20T05:50:39.071Z,100211.84
2022-09-20T05:53:22.931Z,100216.66
2022-09-20T05:55:54.834Z,100214.97
2022-09-20T05:58:29.635Z,100212.91
2022-09-20T06:01:00.959Z,100210.81
2022-09-20T06:03:35.887Z,100212.44
2022-09-20T06:06:05.764Z,100204.97
2022-09-20T06:09:03.349Z,100211.19
2022-09-20T06:11:47.440Z,100203.34
2022-09-20T06:14:22.377Z,100205.81
2022-09-20T06:16:54.262Z,100197.94
2022-09-20T06:19:27.735Z,100205.81
2022-09-20T06:21:58.135Z,100212.63
2022-09-20T06:24:33.960Z,100213.25
2022-09-20T06:27:04.112Z,100218.66
2022-09-20T06:29:33.803Z,100217.59
2022-09-20T06:32:03.292Z,100217.16
2022-09-20T06:34:31.219Z,100218.84
2022-09-20T06:37:22.310Z,100214.06
2022-09-20T06:40:09.780Z,100220.28
2022-09-20T06:42:38.485Z,100215.69
2022-09-20T06:45:06.937Z,100221.47
2022-09-20T06:47:38.787Z,100223.97
2022-09-20T06:50:07.692Z,100217.50
2022-09-20T06:52:35.853Z,100219.19
2022-09-20T06:55:07.418Z,100225.19
2022-09-20T06:57:37.906Z,100226.84
2022-09-20T07:00:07.026Z,100227.47
2022-09-20T07:02:37.407Z,100231.81
2022-09-20T07:05:07.530Z,100236.75
2022-09-20T07:07:35.501Z,100236.75
2022-09-20T07:10:03.461Z,100241.72
2022-09-20T07:12:33.536Z,100246.91
2022-09-20T07:15:01.567Z,100244.84
2022-09-20T07:17:29.480Z,100246.31
2022-09-20T07:19:59.952Z,100247.94
2022-09-20T07:22:27.961Z,100247.50
2022-09-20T07:24:55.928Z,100246.47
2022-09-20T07:27:26.461Z,100252.47
2022-09-20T07:29:57.341Z,100251.44
2022-09-20T07:32:25.313Z,100252.06
2022-09-20T07:34:54.147Z,100249.94
2022-09-20T07:37:23.424Z,100250.78
2022-09-20T07:39:51.354Z,100247.84
2022-09-20T07:42:19.319Z,100257.59
2022-09-20T07:44:47.668Z,100258.22
2022-09-20T07:47:15.666Z,100254.47
2022-09-20T07:49:43.639Z,100256.94
2022-09-20T07:52:11.596Z,100259.44
2022-09-20T07:54:41.061Z,100261.09
2022-09-20T07:57:08.995Z,100256.50
2022-09-20T07:59:36.918Z,100259.00
2022-09-20T08:02:05.149Z,100256.09
2022-09-20T08:04:33.248Z,100252.34
2022-09-20T08:07:01.679Z,100258.56
2022-09-20T08:09:29.591Z,100262.69
2022-09-20T08:11:59.035Z,100254.97
2022-09-20T08:14:26.954Z,100248.53
2022-09-20T08:16:58.287Z,100248.53
2022-09-20T08:19:26.817Z,100245.38
2022-09-20T08:21:54.995Z,100246.00
2022-09-20T08:24:22.966Z,100243.06
2022-09-20T08:26:50.855Z,100249.06
2022-09-20T08:29:20.190Z,100242.66
2022-09-20T08:31:48.307Z,100247.81
2022-09-20T08:34:17.913Z,100248.41
2022-09-20T08:36:47.129Z,100246.34
2022-09-20T08:42:12.934Z,100244.81
2022-09-20T08:44:46.949Z,100231.31
2022-09-20T08:47:17.425Z,100238.41
2022-09-20T08:49:46.604Z,100244.38
2022-09-20T08:52:17.468Z,100247.09
2022-09-20T08:54:45.441Z,100238.97
2022-09-20T08:57:15.515Z,100239.81
2022-09-20T08:59:44.793Z,100242.75
2022-09-20T09:02:16.133Z,100233.56
2022-09-20T09:04:44.751Z,100237.94
2022-09-20T09:07:13.832Z,100233.16
2022-09-20T09:09:43.564Z,100234.78
2022-09-20T09:12:24.252Z,100229.16
2022-09-20T09:14:55.965Z,100226.25
2022-09-20T09:17:28.262Z,100228.72
2022-09-20T09:19:57.050Z,100224.16
2022-09-20T09:22:26.643Z,100208.75
2022-09-20T09:25:24.452Z,100206.88
2022-09-20T09:27:57.080Z,100213.34
2022-09-20T09:30:28.149Z,100211.25
2022-09-20T09:33:17.240Z,100199.59
2022-09-20T09:35:46.496Z,100199.59
2022-09-20T09:38:19.097Z,100199.59
2022-09-20T09:40:51.527Z,100198.56
2022-09-20T09:43:23.391Z,100196.66
2022-09-20T09:45:52.725Z,100195.84
2022-09-20T09:48:21.931Z,100203.72
2022-09-20T09:50:49.952Z,100189.16
2022-09-20T09:53:20.823Z,100188.56
2022-09-20T09:56:01.724Z,100178.81
2022-09-20T09:58:37.513Z,100183.16
2022-09-20T10:01:08.200Z,100178.81
2022-09-20T10:03:41.149Z,100172.56
2022-09-20T10:06:12.786Z,100175.25
2022-09-20T10:08:44.884Z,100177.16
2022-09-20T10:11:20.123Z,100171.75
2022-09-20T10:13:51.009Z,100177.16
2022-09-20T10:16:24.285Z,100172.19
2022-09-20T10:18:54.373Z,100174.91
2022-09-20T10:21:33.201Z,100175.97
2022-09-20T10:24:07.518Z,100186.16
2022-09-20T10:26:43.919Z,100182.84
2022-09-20T10:29:15.746Z,100181.19
2022-09-20T10:31:49.804Z,100179.53
2022-09-20T10:34:29.707Z,100178.94
2022-09-20T10:36:58.340Z,100182.69
2022-09-20T10:39:27.461Z,100182.69
2022-09-20T10:42:17.573Z,100180.22
2022-09-20T10:44:54.281Z,100186.44
2022-09-20T10:47:26.104Z,100184.78
2022-09-20T10:49:58.193Z,100181.03
2022-09-20T10:52:33.293Z,100189.16
2022-09-20T10:55:11.779Z,100171.06
2022-09-20T10:57:53.290Z,100179.97
2022-09-20T11:00:22.676Z,100174.56
2022-09-20T11:03:03.670Z,100174.56
2022-09-20T11:05:34.996Z,100166.47
2022-09-20T11:08:08.037Z,100168.97
2022-09-20T11:10:37.711Z,100172.69
2022-09-20T11:13:08.458Z,100176.81
2022-09-20T11:15:38.088Z,100166.88
2022-09-20T11:18:11.176Z,100172.28
2022-09-20T11:20:44.339Z,100167.69
2022-09-20T11:23:14.336Z,100162.28
2022-09-20T11:25:44.838Z,100160.63
2022-09-20T11:28:15.313Z,100161.47
2022-09-20T11:30:47.450Z,100163.94
2022-09-20T11:33:19.163Z,100153.13
2022-09-20T11:35:48.236Z,100153.13
2022-09-20T11:38:18.846Z,100147.50
2022-09-20T11:40:47.473Z,100148.31
2022-09-20T11:43:15.844Z,100148.53
2022-09-20T11:45:43.832Z,100147.72
2022-09-20T11:48:15.024Z,100136.09
2022-09-20T11:50:52.234Z,100138.78
2022-09-20T11:53:28.204Z,100138.19
2022-09-20T11:55:59.162Z,100130.31
2022-09-20T11:58:27.365Z,100134.66
2022-09-20T12:00:56.909Z,100136.53
2022-09-20T12:03:32.794Z,100141.13
2022-09-20T12:06:02.385Z,100139.47
2022-09-20T12:08:31.836Z,100135.72
2022-09-20T12:11:01.858Z,100138.44
2022-09-20T12:13:29.954Z,100138.63
2022-09-20T12:16:00.103Z,100128.88
2022-09-20T12:18:48.676Z,100137.00
2022-09-20T12:21:20.794Z,100126.41
2022-09-20T12:24:08.306Z,100129.91
2022-09-20T12:26:44.648Z,100127.22
2022-09-20T12:29:54.464Z,100120.53
2022-09-20T12:32:43.459Z,100119.50
2022-09-20T12:36:01.118Z,100127.63
2022-09-20T12:38:49.271Z,100122.44
2022-09-20T12:41:27.541Z,100128.88
2022-09-20T12:44:04.465Z,100125.34
2022-09-20T12:46:35.289Z,100131.59
2022-09-20T12:49:37.632Z,100117.22
2022-09-20T12:52:23.406Z,100121.81
2022-09-20T12:54:59.230Z,100105.41
2022-09-20T12:57:32.319Z,100111.63
2022-09-20T13:00:01.446Z,100109.75
2022-09-20T13:02:57.797Z,100106.59
2022-09-20T13:05:37.670Z,100103.88
2022-09-20T13:08:11.336Z,100110.94
2022-09-20T13:10:42.990Z,100105.56
2022-09-20T13:13:32.690Z,100101.19
2022-09-20T13:16:01.322Z,100096.63
2022-09-20T13:18:29.269Z,100100.34
2022-09-20T13:20:57.753Z,100094.13
2022-09-20T13:23:27.356Z,100095.19
2022-09-20T13:25:58.707Z,100092.50
2022-09-20T13:28:32.423Z,100096.03
2022-09-20T13:31:36.616Z,100091.66
2022-09-20T13:34:14.430Z,100093.31
2022-09-20T13:36:42.802Z,100087.91
2022-09-20T13:39:10.708Z,100084.16
2022-09-20T13:41:40.080Z,100086.63
2022-09-20T13:44:08.036Z,100080.41
2022-09-20T13:46:35.960Z,100081.22
2022-09-20T13:49:20.733Z,100082.25
2022-09-20T13:51:49.130Z,100084.16
2022-09-20T13:54:22.492Z,100078.75
2022-09-20T13:56:51.938Z,100081.69
2022-09-20T13:59:19.895Z,100083.31
2022-09-20T14:01:50.956Z,100077.91
2022-09-20T14:04:19.858Z,100079.81
2022-09-20T14:06:47.763Z,100082.50
2022-09-20T14:09:20.539Z,100089.53
2022-09-20T14:11:48.446Z,100099.53
2022-09-20T14:14:22.018Z,100114.94
2022-09-20T14:16:50.392Z,100124.91
2022-09-20T14:19:18.885Z,100120.53
2022-09-20T14:21:47.746Z,100117.03
2022-09-20T14:24:26.978Z,100116.19
2022-09-20T14:27:02.439Z,100122.63
2022-09-20T14:29:36.578Z,100122.63
2022-09-20T14:32:07.027Z,100128.88
2022-09-20T14:34:37.711Z,100131.59
2022-09-20T14:37:07.607Z,100131.81
2022-09-20T14:39:35.877Z,100126.63
2022-09-20T14:42:03.957Z,100133.69
2022-09-20T14:44:34.733Z,100136.59
2022-09-20T14:47:06.191Z,100139.31
2022-09-20T14:49:34.296Z,100143.06
2022-09-20T14:52:37.439Z,100136.00
2022-09-20T14:55:18.309Z,100140.56
2022-09-20T14:57:46.998Z,100144.09
2022-09-20T15:00:17.631Z,100139.53
2022-09-20T15:02:45.965Z,100136.84
2022-09-20T15:05:20.618Z,100132.47
2022-09-20T15:07:48.398Z,100134.97
2022-09-20T15:10:16.435Z,100142.44
2022-09-20T15:12:44.366Z,100133.28
2022-09-20T15:15:15.360Z,100132.72
2022-09-20T15:17:45.135Z,100141.63
2022-09-20T15:20:23.238Z,100137.06
2022-09-20T15:22:52.097Z,100131.66
2022-09-20T15:25:21.962Z,100130.00
2022-09-20T15:27:50.918Z,100128.34
2022-09-20T15:30:19.733Z,100128.34
2022-09-20T15:32:49.154Z,100135.63
2022-09-20T15:35:17.319Z,100125.06
2022-09-20T15:37:45.321Z,100130.47
2022-09-20T15:40:13.291Z,100125.25
2022-09-20T15:42:41.616Z,100137.94
2022-09-20T15:45:10.772Z,100131.72
2022-09-20T15:47:38.946Z,100135.47
2022-09-20T15:50:09.531Z,100140.88
2022-09-20T15:52:39.887Z,100140.03
2022-09-20T15:55:08.748Z,100133.00
2022-09-20T15:57:36.906Z,100134.66
2022-09-20T16:00:05.521Z,100135.47
2022-09-20T16:02:33.657Z,100135.47
2022-09-20T16:05:02.087Z,100136.28
2022-09-20T16:07:31.388Z,100136.28
2022-09-20T16:09:59.485Z,100140.88
2022-09-20T16:12:27.491Z,100137.34
2022-09-20T16:14:55.436Z,100138.16
2022-09-20T16:17:43.800Z,100134.66
2022-09-20T16:20:11.180Z,100141.09
2022-09-20T16:22:40.480Z,100138.41
2022-09-20T16:25:09.354Z,100140.50
2022-09-20T16:27:37.419Z,100137.78
2022-09-20T16:30:06.015Z,100133.41
2022-09-20T16:32:34.819Z,100153.19
2022-09-20T16:35:07.117Z,100145.91
2022-09-20T16:37:36.874Z,100139.69
2022-09-20T16:40:07.149Z,100151.28
2022-09-20T16:42:35.163Z,100157.72
2022-09-20T16:45:03.632Z,100156.91
2022-09-20T16:47:31.532Z,100157.72
2022-09-20T16:50:05.049Z,100156.69
2022-09-20T16:52:33.000Z,100156.69
2022-09-20T16:55:02.033Z,100152.94
2022-09-20T16:57:33.512Z,100156.69
2022-09-20T17:00:01.561Z,100160.00
2022-09-20T17:02:29.526Z,100155.44
2022-09-20T17:04:57.526Z,100161.66
2022-09-20T17:07:25.703Z,100162.47
2022-09-20T17:10:01.191Z,100172.47
2022-09-20T17:12:33.005Z,100171.41
2022-09-20T17:15:02.323Z,100168.69
2022-09-20T17:17:30.207Z,100168.69
2022-09-20T17:19:58.122Z,100171.19
2022-09-20T17:22:26.035Z,100175.78
2022-09-20T17:24:54.972Z,100176.59
2022-09-20T17:27:24.139Z,100171.41
2022-09-20T17:29:52.235Z,100174.09
2022-09-20T17:32:22.857Z,100179.50
2022-09-20T17:34:50.851Z,100178.47
2022-09-20T17:37:19.148Z,100189.88
2022-09-20T17:39:47.101Z,100181.53
2022-09-20T17:42:15.130Z,100179.66
2022-09-20T17:44:43.032Z,100181.91
2022-09-20T17:47:10.953Z,100176.50
2022-09-20T17:49:40.724Z,100186.50
2022-09-20T17:52:08.693Z,100181.91
2022-09-20T17:54:36.616Z,100187.94
2022-09-20T17:57:05.623Z,100187.94
2022-09-20T17:59:34.481Z,100193.31
2022-09-20T18:02:02.465Z,100196.03
2022-09-20T18:04:30.426Z,100197.69
2022-09-20T18:07:00.659Z,100203.09
2022-09-20T18:09:28.566Z,100203.09
2022-09-20T18:11:56.567Z,100204.75
2022-09-20T18:14:25.220Z,100210.97
2022-09-20T18:16:53.268Z,100208.06
2022-09-20T18:19:22.669Z,100221.56
2022-09-20T18:21:50.789Z,100223.22
2022-09-20T18:24:20.065Z,100208.06
2022-09-20T18:26:47.997Z,100213.47
2022-09-20T18:29:17.952Z,100220.75
2022-09-20T18:31:47.598Z,100229.69
2022-09-20T18:34:17.961Z,100224.28
2022-09-20T18:36:46.437Z,100235.91
2022-09-20T18:39:14.353Z,100236.72
2022-09-20T18:41:44.039Z,100236.72
2022-09-20T18:44:14.916Z,100242.13
2022-09-20T18:46:43.162Z,100248.59
2022-09-20T18:49:12.737Z,100246.72
2022-09-20T18:51:40.637Z,100251.28
2022-09-20T18:54:10.451Z,100241.50
2022-09-20T18:56:38.693Z,100244.22
2022-09-20T18:59:08.913Z,100238.81
2022-09-20T19:02:10.259Z,100242.56
2022-09-20T19:04:50.949Z,100243.03
2022-09-20T19:07:23.336Z,100243.47
2022-09-20T19:09:53.922Z,100240.59
2022-09-20T19:12:24.537Z,100241.63
2022-09-20T19:15:21.977Z,100240.19
2022-09-20T19:17:58.705Z,100244.78
2022-09-20T19:20:30.244Z,100242.31
2022-09-20T19:23:04.394Z,100245.84
2022-09-20T19:25:33.834Z,100236.06
2022-09-20T19:28:02.614Z,100237.72
2022-09-20T19:30:32.948Z,100239.81
2022-09-20T19:33:02.819Z,100239.81
2022-09-20T19:35:34.241Z,100239.81
2022-09-20T19:38:06.034Z,100243.56
2022-09-20T19:40:39.805Z,100243.56
2022-09-20T19:43:17.852Z,100245.66
2022-09-20T19:45:49.615Z,100242.97
2022-09-20T19:48:18.625Z,100248.38
2022-09-20T19:50:47.288Z,100249.41
2022-09-20T19:53:15.944Z,100249.63
2022-09-20T19:55:46.321Z,100247.75
2022-09-20T19:58:14.861Z,100251.50
2022-09-20T20:00:45.341Z,100254.22
2022-09-20T20:03:15.404Z,100255.25
2022-09-20T20:05:46.577Z,100245.50
2022-09-20T20:08:16.986Z,100256.28
2022-09-20T20:10:51.011Z,100251.09
2022-09-20T20:13:40.887Z,100250.28
2022-09-20T20:16:12.281Z,100261.09
2022-09-20T20:18:46.940Z,100255.06
2022-09-20T20:21:18.194Z,100262.34
2022-09-20T20:23:55.625Z,100262.59
2022-09-20T20:26:24.592Z,100266.09
2022-09-20T20:28:52.868Z,100272.31
2022-09-20T20:31:20.986Z,100275.22
2022-09-20T20:33:50.537Z,100277.09
2022-09-20T20:36:18.536Z,100280.06
2022-09-20T20:38:50.055Z,100280.06
2022-09-20T20:41:19.408Z,100282.75
2022-09-20T20:43:48.207Z,100275.47
2022-09-20T20:46:17.530Z,100275.47
2022-09-20T20:48:45.657Z,100286.47
2022-09-20T20:51:15.643Z,100281.06
2022-09-20T20:53:45.306Z,100273.22
2022-09-20T20:56:14.294Z,100278.59
2022-09-20T20:58:43.266Z,100273.22
2022-09-20T21:01:12.564Z,100282.94
2022-09-20T21:03:41.762Z,100281.50
2022-09-20T21:06:10.198Z,100287.75
2022-09-20T21:08:40.235Z,100280.69
2022-09-20T21:11:09.288Z,100291.50
2022-09-20T21:13:37.257Z,100287.16
2022-09-20T21:16:09.698Z,100283.59
2022-09-20T21:18:37.658Z,100274.91
2022-09-20T21:21:06.028Z,100274.91
2022-09-20T21:23:34.914Z,100272.41
2022-09-20T21:26:07.333Z,100282.41
2022-09-20T21:28:39.978Z,100280.72
2022-09-20T21:31:08.586Z,100277.81
2022-09-20T21:33:37.140Z,100280.72
2022-09-20T21:36:05.467Z,100284.47
2022-09-20T21:38:34.555Z,100279.06
2022-09-20T21:41:05.363Z,100289.06
2022-09-20T21:43:33.347Z,100288.00
2022-09-20T21:46:01.288Z,100290.69
2022-09-20T21:48:29.562Z,100284.47
2022-09-20T21:51:05.206Z,100281.97
2022-09-20T21:53:33.508Z,100279.28
2022-09-20T21:56:02.351Z,100285.53
2022-09-20T21:58:31.626Z,100270.59
2022-09-20T22:01:00.297Z,100280.34
2022-09-20T22:03:31.988Z,100281.41
2022-09-20T22:06:06.176Z,100283.03
2022-09-20T22:08:34.147Z,100284.09
2022-09-20T22:11:03.509Z,100280.75
2022-09-20T22:13:32.856Z,100280.75
2022-09-20T22:16:06.060Z,100290.72
2022-09-20T22:18:38.349Z,100298.19
2022-09-20T22:21:07.779Z,100291.97
2022-09-20T22:23:35.973Z,100291.16
2022-09-20T22:26:04.739Z,100283.25
2022-09-20T22:28:34.096Z,100277.03
2022-09-20T22:31:07.166Z,100277.88
2022-09-20T22:33:35.711Z,100281.63
2022-09-20T22:36:04.069Z,100287.84
2022-09-20T22:38:32.207Z,100291.56
2022-09-20T22:41:00.392Z,100295.31
2022-09-20T22:43:28.508Z,100305.31
2022-09-20T22:46:03.368Z,100308.00
2022-09-20T22:48:31.699Z,100302.59
2022-09-20T22:51:00.913Z,100292.81
2022-09-20T22:53:29.766Z,100292.00
2022-09-20T22:56:04.247Z,100305.72
2022-09-20T22:58:32.835Z,100291.38
2022-09-20T23:01:07.196Z,100297.63
2022-09-20T23:03:35.246Z,100284.13
2022-09-20T23:06:04.102Z,100290.56
2022-09-20T23:08:33.206Z,100299.72
2022-09-20T23:11:02.628Z,100284.53
2022-09-20T23:13:30.543Z,100294.31
2022-09-20T23:16:00.134Z,100300.75
2022-09-20T23:18:29.487Z,100297.03
2022-09-20T23:21:01.295Z,100293.69
2022-09-20T23:23:29.304Z,100289.34
2022-09-20T23:25:57.365Z,100277.50
2022-09-20T23:28:27.381Z,100278.56
2022-09-20T23:30:55.481Z,100282.09
2022-09-20T23:33:23.548Z,100281.25
2022-09-20T23:35:52.812Z,100283.34
2022-09-20T23:38:20.719Z,100273.38
2022-09-20T23:40:48.634Z,100278.75
2022-09-20T23:43:16.613Z,100276.31
2022-09-20T23:45:44.685Z,100285.22
2022-09-20T23:48:12.605Z,100275.44
2022-09-20T23:50:40.526Z,100281.69
2022-09-20T23:53:09.775Z,100272.75
2022-09-20T23:55:37.768Z,100276.31
2022-09-20T23:58:05.743Z,100273.81
